Boynton Beach, FL

12:27 AM EST on November 26, 2014 (GMT -0500)
Fort Lauderdale Executive | Change Station
CLOSE
Current Station
Airport
Location: Fort Lauderdale,
Elevation: 13 ft
Nearby Weather Stations

Elev 13 ft 26.20 °N, 80.18 °W | Updated 15 minutes ago

Partly Cloudy
Partly Cloudy
79 °F
Feels Like 79 °F
N
10
Wind Variable Wind from SSE

Today
High -- | Low -- °F
--% Chance of Precip.
Yesterday
High -- | Low -- °F
Precip. -- in
6:47 AM 5:27 PM
Waxing Crescent, 16% visible
Pressure 29.93 in
Visibility 10.0 miles
Clouds Mostly Cloudy 1400 ft
Overcast 1900 ft
Dew Point 75 °F
Humidity 88%
Rainfall 0.06 in
Snow Depth Not available.
UV 0 out of 12
Pollen 2.40 out of 12
Air Quality Not available.
Flu Activity Not available.
SPECI KFXE 260512Z 16009KT 10SM BKN014 OVC019 26/24 A2993 RMK AO2 T02610239

More Conditions Fewer Conditions

Pressure 29.93 in
Visibility 10.0 miles
Clouds Mostly Cloudy 1400 ft
Overcast 1900 ft
Dew Point 75 °F
Humidity 88%
Rainfall 0.06 in
Snow Depth Not available.
UV 0 out of 12
Pollen 2.40 out of 12
Air Quality Not available.
Flu Activity Not available.
SPECI KFXE 260512Z 16009KT 10SM BKN014 OVC019 26/24 A2993 RMK AO2 T02610239

More Conditions Fewer Conditions

10-Day Weather Forecast

Almanac

Astronomy

Nov. 26, 2014 Rise Set
Actual Time
Civil Twilight
Nautical Twilight
Astronomical Twilight
Moon
Length of Visible Light
Length of Day
Tomorrow will be .
, % of the Moon is Illuminated

Today's Extremes

State Highs State Lows

Community

WunderPhotos

Upload Photos

1,773,687 photos uploaded!

WunderBlogs® & News

Nearby

Air Quality

  Air Quality AQ Index Pollutant
Not available.

Snow Depth

Station Depth Elevation

Earthquake Activity

City Distance Mag. Time & Date
Minimum magnitude displayed is 2.5.

Coastal Water Temperatures

Place Temperature

Nearby Weather Stations